sensor_id;sensor_type;location;lat;lon;timestamp;pressure;altitude;pressure_sealevel;temperature;humidity
51849;BME280;38952;51.090;-1.832;2023-06-14T00:00:36;100339.50;;;18.25;44.54
51849;BME280;38952;51.090;-1.832;2023-06-14T00:03:04;100346.31;;;18.19;44.86
51849;BME280;38952;51.090;-1.832;2023-06-14T00:05:29;100349.56;;;18.12;45.18
51849;BME280;38952;51.090;-1.832;2023-06-14T00:07:57;100352.59;;;18.02;44.84
51849;BME280;38952;51.090;-1.832;2023-06-14T00:10:25;100355.81;;;17.95;45.04
51849;BME280;38952;51.090;-1.832;2023-06-14T00:12:56;100349.41;;;17.86;45.32
51849;BME280;38952;51.090;-1.832;2023-06-14T00:15:21;100355.03;;;17.81;45.57
51849;BME280;38952;51.090;-1.832;2023-06-14T00:17:48;100361.53;;;17.76;45.46
51849;BME280;38952;51.090;-1.832;2023-06-14T00:20:14;100366.50;;;17.66;45.49
51849;BME280;38952;51.090;-1.832;2023-06-14T00:22:39;100366.13;;;17.58;45.81
51849;BME280;38952;51.090;-1.832;2023-06-14T00:25:05;100363.50;;;17.53;45.90
51849;BME280;38952;51.090;-1.832;2023-06-14T00:27:31;100365.38;;;17.44;45.91
51849;BME280;38952;51.090;-1.832;2023-06-14T00:29:56;100365.00;;;17.37;45.91
51849;BME280;38952;51.090;-1.832;2023-06-14T00:32:23;100356.47;;;17.24;45.86
51849;BME280;38952;51.090;-1.832;2023-06-14T00:34:51;100350.56;;;17.17;45.88
51849;BME280;38952;51.090;-1.832;2023-06-14T00:37:17;100362.59;;;17.21;46.26
51849;BME280;38952;51.090;-1.832;2023-06-14T00:39:42;100364.38;;;17.17;45.99
51849;BME280;38952;51.090;-1.832;2023-06-14T00:42:07;100349.78;;;17.03;46.33
51849;BME280;38952;51.090;-1.832;2023-06-14T00:44:33;100365.09;;;17.09;46.01
51849;BME280;38952;51.090;-1.832;2023-06-14T00:47:01;100364.09;;;17.05;46.07
51849;BME280;38952;51.090;-1.832;2023-06-14T00:49:28;100365.34;;;16.99;46.20
51849;BME280;38952;51.090;-1.832;2023-06-14T00:51:54;100353.88;;;16.91;46.74
51849;BME280;38952;51.090;-1.832;2023-06-14T00:54:20;100358.78;;;16.95;46.97
51849;BME280;38952;51.090;-1.832;2023-06-14T00:56:45;100360.53;;;16.90;46.96
51849;BME280;38952;51.090;-1.832;2023-06-14T00:59:11;100366.69;;;16.87;47.23
51849;BME280;38952;51.090;-1.832;2023-06-14T01:01:37;100365.31;;;16.85;47.20
51849;BME280;38952;51.090;-1.832;2023-06-14T01:04:04;100369.63;;;16.77;47.23
51849;BME280;38952;51.090;-1.832;2023-06-14T01:06:35;100378.84;;;16.72;47.42
51849;BME280;38952;51.090;-1.832;2023-06-14T01:09:16;100373.41;;;16.67;47.79
51849;BME280;38952;51.090;-1.832;2023-06-14T01:12:01;100373.63;;;16.71;47.73
51849;BME280;38952;51.090;-1.832;2023-06-14T01:14:31;100372.00;;;16.70;47.61
51849;BME280;38952;51.090;-1.832;2023-06-14T01:16:59;100370.88;;;16.71;48.15
51849;BME280;38952;51.090;-1.832;2023-06-14T01:19:26;100374.03;;;16.78;48.22
51849;BME280;38952;51.090;-1.832;2023-06-14T01:21:55;100362.38;;;16.81;48.20
51849;BME280;38952;51.090;-1.832;2023-06-14T01:24:20;100377.81;;;16.82;48.18
51849;BME280;38952;51.090;-1.832;2023-06-14T01:26:53;100366.38;;;16.75;48.06
51849;BME280;38952;51.090;-1.832;2023-06-14T01:29:22;100374.44;;;16.71;48.11
51849;BME280;38952;51.090;-1.832;2023-06-14T01:31:49;100373.72;;;16.66;48.33
51849;BME280;38952;51.090;-1.832;2023-06-14T01:34:15;100363.91;;;16.60;48.22
51849;BME280;38952;51.090;-1.832;2023-06-14T01:36:43;100372.13;;;16.65;48.69
51849;BME280;38952;51.090;-1.832;2023-06-14T01:39:14;100367.09;;;16.67;48.01
51849;BME280;38952;51.090;-1.832;2023-06-14T01:41:41;100379.03;;;16.76;48.30
51849;BME280;38952;51.090;-1.832;2023-06-14T01:44:08;100374.03;;;16.78;47.84
51849;BME280;38952;51.090;-1.832;2023-06-14T01:46:35;100375.38;;;16.81;47.65
51849;BME280;38952;51.090;-1.832;2023-06-14T01:49:01;100369.63;;;16.77;47.48
51849;BME280;38952;51.090;-1.832;2023-06-14T01:51:27;100370.13;;;16.79;47.57
51849;BME280;38952;51.090;-1.832;2023-06-14T01:53:52;100375.66;;;16.79;47.71
51849;BME280;38952;51.090;-1.832;2023-06-14T01:56:18;100370.44;;;16.78;47.56
51849;BME280;38952;51.090;-1.832;2023-06-14T01:58:43;100353.28;;;16.67;47.47
51849;BME280;38952;51.090;-1.832;2023-06-14T02:01:09;100363.31;;;16.63;47.16
51849;BME280;38952;51.090;-1.832;2023-06-14T02:03:34;100359.44;;;16.50;47.34
51849;BME280;38952;51.090;-1.832;2023-06-14T02:05:59;100356.16;;;16.34;47.98
51849;BME280;38952;51.090;-1.832;2023-06-14T02:08:25;100367.09;;;16.25;48.19
51849;BME280;38952;51.090;-1.832;2023-06-14T02:10:51;100365.38;;;16.15;48.22
51849;BME280;38952;51.090;-1.832;2023-06-14T02:13:19;100369.94;;;16.06;48.43
51849;BME280;38952;51.090;-1.832;2023-06-14T02:15:44;100353.06;;;15.94;48.59
51849;BME280;38952;51.090;-1.832;2023-06-14T02:18:10;100358.09;;;15.92;48.81
51849;BME280;38952;51.090;-1.832;2023-06-14T02:20:36;100357.34;;;15.86;49.56
51849;BME280;38952;51.090;-1.832;2023-06-14T02:23:02;100348.94;;;15.77;49.63
51849;BME280;38952;51.090;-1.832;2023-06-14T02:25:27;100346.78;;;15.74;49.89
51849;BME280;38952;51.090;-1.832;2023-06-14T02:27:54;100349.91;;;15.67;49.95
51849;BME280;38952;51.090;-1.832;2023-06-14T02:30:20;100345.69;;;15.56;50.40
51849;BME280;38952;51.090;-1.832;2023-06-14T02:32:46;100358.66;;;15.56;50.86
51849;BME280;38952;51.090;-1.832;2023-06-14T02:35:11;100354.34;;;15.49;51.13
51849;BME280;38952;51.090;-1.832;2023-06-14T02:37:38;100343.50;;;15.39;51.09
51849;BME280;38952;51.090;-1.832;2023-06-14T02:40:05;100341.72;;;15.29;51.52
51849;BME280;38952;51.090;-1.832;2023-06-14T02:42:31;100332.28;;;15.16;51.77
51849;BME280;38952;51.090;-1.832;2023-06-14T02:44:56;100334.59;;;15.09;52.17
51849;BME280;38952;51.090;-1.832;2023-06-14T02:47:22;100339.66;;;15.02;52.45
51849;BME280;38952;51.090;-1.832;2023-06-14T02:49:47;100346.94;;;14.93;52.54
51849;BME280;38952;51.090;-1.832;2023-06-14T02:52:13;100347.09;;;14.82;52.83
51849;BME280;38952;51.090;-1.832;2023-06-14T02:54:38;100344.53;;;14.67;52.86
51849;BME280;38952;51.090;-1.832;2023-06-14T02:57:04;100347.47;;;14.52;53.01
51849;BME280;38952;51.090;-1.832;2023-06-14T02:59:29;100339.25;;;14.46;53.62
51849;BME280;38952;51.090;-1.832;2023-06-14T03:01:55;100335.41;;;14.47;53.89
51849;BME280;38952;51.090;-1.832;2023-06-14T03:04:20;100340.44;;;14.40;54.17
51849;BME280;38952;51.090;-1.832;2023-06-14T03:06:46;100332.25;;;14.35;54.32
51849;BME280;38952;51.090;-1.832;2023-06-14T03:09:15;100341.16;;;14.27;54.70
51849;BME280;38952;51.090;-1.832;2023-06-14T03:11:41;100345.13;;;14.16;54.80
51849;BME280;38952;51.090;-1.832;2023-06-14T03:14:06;100340.34;;;14.02;54.68
51849;BME280;38952;51.090;-1.832;2023-06-14T03:16:33;100356.88;;;13.97;54.34
51849;BME280;38952;51.090;-1.832;2023-06-14T03:18:59;100356.69;;;13.88;55.00
51849;BME280;38952;51.090;-1.832;2023-06-14T03:21:24;100345.56;;;13.74;54.97
51849;BME280;38952;51.090;-1.832;2023-06-14T03:23:51;100345.56;;;13.74;55.40
51849;BME280;38952;51.090;-1.832;2023-06-14T03:26:18;100342.84;;;13.69;55.17
51849;BME280;38952;51.090;-1.832;2023-06-14T03:28:45;100348.72;;;13.57;54.99
51849;BME280;38952;51.090;-1.832;2023-06-14T03:31:11;100351.81;;;13.51;54.96
51849;BME280;38952;51.090;-1.832;2023-06-14T03:33:37;100346.41;;;13.40;55.07
51849;BME280;38952;51.090;-1.832;2023-06-14T03:36:03;100351.91;;;13.35;54.81
51849;BME280;38952;51.090;-1.832;2023-06-14T03:38:28;100359.63;;;13.28;55.05
51849;BME280;38952;51.090;-1.832;2023-06-14T03:40:54;100357.47;;;13.20;54.66
51849;BME280;38952;51.090;-1.832;2023-06-14T03:43:19;100367.97;;;13.13;54.45
51849;BME280;38952;51.090;-1.832;2023-06-14T03:45:45;100366.06;;;13.08;54.14
51849;BME280;38952;51.090;-1.832;2023-06-14T03:48:10;100363.09;;;13.04;54.69
51849;BME280;38952;51.090;-1.832;2023-06-14T03:50:36;100363.09;;;12.99;54.67
51849;BME280;38952;51.090;-1.832;2023-06-14T03:53:03;100361.22;;;12.95;53.94
51849;BME280;38952;51.090;-1.832;2023-06-14T03:55:29;100362.88;;;12.90;54.59
51849;BME280;38952;51.090;-1.832;2023-06-14T03:57:56;100371.41;;;12.89;54.45
51849;BME280;38952;51.090;-1.832;2023-06-14T04:00:22;100369.50;;;12.84;53.84
51849;BME280;38952;51.090;-1.832;2023-06-14T04:02:48;100367.63;;;12.74;54.01
51849;BME280;38952;51.090;-1.832;2023-06-14T04:05:14;100369.03;;;12.72;54.54
51849;BME280;38952;51.090;-1.832;2023-06-14T04:07:42;100362.19;;;12.64;54.49
51849;BME280;38952;51.090;-1.832;2023-06-14T04:10:12;100367.72;;;12.59;54.74
51849;BME280;38952;51.090;-1.832;2023-06-14T04:12:38;100374.28;;;12.58;54.22
51849;BME280;38952;51.090;-1.832;2023-06-14T04:15:04;100363.88;;;12.55;54.84
51849;BME280;38952;51.090;-1.832;2023-06-14T04:17:31;100377.59;;;12.60;55.22
51849;BME280;38952;51.090;-1.832;2023-06-14T04:19:59;100368.81;;;12.58;55.24
51849;BME280;38952;51.090;-1.832;2023-06-14T04:22:26;100384.69;;;12.66;55.19
51849;BME280;38952;51.090;-1.832;2023-06-14T04:24:54;100375.91;;;12.69;55.11
51849;BME280;38952;51.090;-1.832;2023-06-14T04:27:22;100379.22;;;12.66;55.00
51849;BME280;38952;51.090;-1.832;2023-06-14T04:29:54;100374.81;;;12.65;55.19
51849;BME280;38952;51.090;-1.832;2023-06-14T04:32:28;100382.19;;;12.70;55.55
51849;BME280;38952;51.090;-1.832;2023-06-14T04:35:08;100379.44;;;12.75;55.75
51849;BME280;38952;51.090;-1.832;2023-06-14T04:37:33;100384.38;;;12.78;55.41
51849;BME280;38952;51.090;-1.832;2023-06-14T04:39:59;100369.56;;;12.79;55.27
51849;BME280;38952;51.090;-1.832;2023-06-14T04:42:24;100381.84;;;12.87;55.82
51849;BME280;38952;51.090;-1.832;2023-06-14T04:44:51;100387.84;;;12.94;55.69
51849;BME280;38952;51.090;-1.832;2023-06-14T04:47:17;100390.03;;;12.92;55.68
51849;BME280;38952;51.090;-1.832;2023-06-14T04:49:43;100401.03;;;12.92;55.65
51849;BME280;38952;51.090;-1.832;2023-06-14T04:52:08;100398.56;;;12.90;55.67
51849;BME280;38952;51.090;-1.832;2023-06-14T04:54:41;100401.34;;;12.85;55.64
51849;BME280;38952;51.090;-1.832;2023-06-14T04:57:09;100400.50;;;12.90;56.07
51849;BME280;38952;51.090;-1.832;2023-06-14T04:59:40;100391.69;;;12.93;56.02
51849;BME280;38952;51.090;-1.832;2023-06-14T05:02:05;100400.72;;;12.99;56.43
51849;BME280;38952;51.090;-1.832;2023-06-14T05:04:32;100401.81;;;13.03;57.05
51849;BME280;38952;51.090;-1.832;2023-06-14T05:06:57;100399.06;;;13.03;56.39
51849;BME280;38952;51.090;-1.832;2023-06-14T05:09:23;100403.13;;;13.10;57.02
51849;BME280;38952;51.090;-1.832;2023-06-14T05:11:49;100403.13;;;13.10;56.73
51849;BME280;38952;51.090;-1.832;2023-06-14T05:14:15;100405.84;;;13.16;57.15
51849;BME280;38952;51.090;-1.832;2023-06-14T05:16:41;100395.41;;;13.13;56.49
51849;BME280;38952;51.090;-1.832;2023-06-14T05:19:07;100387.22;;;13.07;56.74
51849;BME280;38952;51.090;-1.832;2023-06-14T05:21:32;100410.50;;;13.20;56.87
51849;BME280;38952;51.090;-1.832;2023-06-14T05:24:09;100408.56;;;13.21;57.04
51849;BME280;38952;51.090;-1.832;2023-06-14T05:26:36;100404.13;;;13.25;57.15
51849;BME280;38952;51.090;-1.832;2023-06-14T05:29:02;100408.78;;;13.30;56.96
51849;BME280;38952;51.090;-1.832;2023-06-14T05:31:28;100408.50;;;13.36;57.36
51849;BME280;38952;51.090;-1.832;2023-06-14T05:33:53;100394.19;;;13.39;57.04
51849;BME280;38952;51.090;-1.832;2023-06-14T05:36:19;100395.28;;;13.43;57.51
51849;BME280;38952;51.090;-1.832;2023-06-14T05:38:49;100396.13;;;13.34;57.84
51849;BME280;38952;51.090;-1.832;2023-06-14T05:41:49;100356.53;;;12.95;57.92
51849;BME280;38952;51.090;-1.832;2023-06-14T05:44:51;100410.72;;;13.24;59.13
51849;BME280;38952;51.090;-1.832;2023-06-14T05:47:57;100377.97;;;12.98;59.71
51849;BME280;38952;51.090;-1.832;2023-06-14T05:50:28;100365.38;;;12.87;60.08
51849;BME280;38952;51.090;-1.832;2023-06-14T05:53:23;100351.09;;;12.85;59.66
51849;BME280;38952;51.090;-1.832;2023-06-14T05:56:04;100373.53;;;13.02;60.17
51849;BME280;38952;51.090;-1.832;2023-06-14T05:58:32;100383.06;;;13.15;60.63
51849;BME280;38952;51.090;-1.832;2023-06-14T06:00:59;100388.25;;;13.22;61.37
51849;BME280;38952;51.090;-1.832;2023-06-14T06:03:32;100378.06;;;13.22;61.19
51849;BME280;38952;51.090;-1.832;2023-06-14T06:06:05;100393.63;;;13.42;61.23
51849;BME280;38952;51.090;-1.832;2023-06-14T06:08:34;100378.22;;;13.47;61.78
51849;BME280;38952;51.090;-1.832;2023-06-14T06:11:00;100410.66;;;13.74;62.04
51849;BME280;38952;51.090;-1.832;2023-06-14T06:13:29;100399.13;;;13.77;62.05
51849;BME280;38952;51.090;-1.832;2023-06-14T06:15:56;100399.34;;;13.81;61.73
51849;BME280;38952;51.090;-1.832;2023-06-14T06:18:22;100399.31;;;13.86;62.83
51849;BME280;38952;51.090;-1.832;2023-06-14T06:20:47;100402.28;;;13.94;62.62
51849;BME280;38952;51.090;-1.832;2023-06-14T06:23:13;100419.09;;;14.17;61.98
51849;BME280;38952;51.090;-1.832;2023-06-14T06:25:38;100388.91;;;14.12;62.62
51849;BME280;38952;51.090;-1.832;2023-06-14T06:28:06;100399.16;;;14.30;62.01
51849;BME280;38952;51.090;-1.832;2023-06-14T06:30:34;100408.59;;;14.48;61.95
51849;BME280;38952;51.090;-1.832;2023-06-14T06:33:01;100395.94;;;14.47;62.07
51849;BME280;38952;51.090;-1.832;2023-06-14T06:35:27;100387.31;;;14.54;62.56
51849;BME280;38952;51.090;-1.832;2023-06-14T06:37:52;100399.81;;;14.71;62.36
51849;BME280;38952;51.090;-1.832;2023-06-14T06:40:18;100402.97;;;14.83;62.17
51849;BME280;38952;51.090;-1.832;2023-06-14T06:42:43;100407.53;;;14.93;61.84
51849;BME280;38952;51.090;-1.832;2023-06-14T06:45:09;100414.69;;;15.13;62.09
51849;BME280;38952;51.090;-1.832;2023-06-14T06:47:37;100415.28;;;15.29;61.52
51849;BME280;38952;51.090;-1.832;2023-06-14T06:50:07;100413.94;;;15.45;61.18
51849;BME280;38952;51.090;-1.832;2023-06-14T06:52:33;100420.78;;;15.67;60.72
51849;BME280;38952;51.090;-1.832;2023-06-14T06:54:59;100436.91;;;15.93;60.04
51849;BME280;38952;51.090;-1.832;2023-06-14T06:57:24;100399.44;;;15.92;60.01
51849;BME280;38952;51.090;-1.832;2023-06-14T06:59:57;100432.31;;;16.35;59.54
51849;BME280;38952;51.090;-1.832;2023-06-14T07:02:22;100426.09;;;16.43;59.04
51849;BME280;38952;51.090;-1.832;2023-06-14T07:04:52;100412.59;;;16.42;58.28
51849;BME280;38952;51.090;-1.832;2023-06-14T07:07:18;100438.97;;;16.62;58.27
51849;BME280;38952;51.090;-1.832;2023-06-14T07:09:46;100425.16;;;16.62;58.07
51849;BME280;38952;51.090;-1.832;2023-06-14T07:12:11;100442.63;;;16.85;57.81
51849;BME280;38952;51.090;-1.832;2023-06-14T07:14:37;100417.06;;;16.79;57.10
51849;BME280;38952;51.090;-1.832;2023-06-14T07:17:02;100428.13;;;17.07;57.06
51849;BME280;38952;51.090;-1.832;2023-06-14T07:19:28;100438.50;;;17.38;56.57
51849;BME280;38952;51.090;-1.832;2023-06-14T07:21:53;100428.22;;;17.52;56.84
51849;BME280;38952;51.090;-1.832;2023-06-14T07:24:21;100418.03;;;17.61;56.20
51849;BME280;38952;51.090;-1.832;2023-06-14T07:26:46;100415.03;;;17.72;55.52
51849;BME280;38952;51.090;-1.832;2023-06-14T07:29:13;100427.47;;;17.83;55.50
51849;BME280;38952;51.090;-1.832;2023-06-14T07:31:48;100413.00;;;17.86;54.86
51849;BME280;38952;51.090;-1.832;2023-06-14T07:34:14;100408.88;;;17.98;54.63
51849;BME280;38952;51.090;-1.832;2023-06-14T07:36:40;100437.88;;;18.31;54.08
51849;BME280;38952;51.090;-1.832;2023-06-14T07:39:08;100420.44;;;18.31;53.98
51849;BME280;38952;51.090;-1.832;2023-06-14T07:41:59;100427.22;;;18.47;54.02
51849;BME280;38952;51.090;-1.832;2023-06-14T07:44:32;100447.97;;;18.67;52.71
51849;BME280;38952;51.090;-1.832;2023-06-14T07:47:07;100412.88;;;18.54;52.84
51849;BME280;38952;51.090;-1.832;2023-06-14T07:50:10;100419.44;;;18.67;52.16
51849;BME280;38952;51.090;-1.832;2023-06-14T07:53:05;100428.84;;;18.97;51.81
51849;BME280;38952;51.090;-1.832;2023-06-14T07:55:33;100423.81;;;19.17;51.42
51849;BME280;38952;51.090;-1.832;2023-06-14T07:58:07;100427.78;;;19.33;51.06
51849;BME280;38952;51.090;-1.832;2023-06-14T08:00:35;100437.56;;;19.48;50.12
51849;BME280;38952;51.090;-1.832;2023-06-14T08:03:06;100421.25;;;19.47;50.27
51849;BME280;38952;51.090;-1.832;2023-06-14T08:05:33;100448.97;;;19.73;49.76
51849;BME280;38952;51.090;-1.832;2023-06-14T08:07:59;100447.69;;;19.88;49.46
51849;BME280;38952;51.090;-1.832;2023-06-14T08:10:25;100446.81;;;20.14;49.15
51849;BME280;38952;51.090;-1.832;2023-06-14T08:12:50;100427.19;;;20.28;48.85
51849;BME280;38952;51.090;-1.832;2023-06-14T08:15:16;100442.91;;;20.62;48.24
51849;BME280;38952;51.090;-1.832;2023-06-14T08:17:49;100428.47;;;20.78;48.17
51849;BME280;38952;51.090;-1.832;2023-06-14T08:20:16;100452.34;;;21.08;47.05
51849;BME280;38952;51.090;-1.832;2023-06-14T08:22:46;100436.97;;;21.02;45.72
51849;BME280;38952;51.090;-1.832;2023-06-14T08:25:12;100462.22;;;21.18;45.34
51849;BME280;38952;51.090;-1.832;2023-06-14T08:27:40;100438.44;;;21.08;44.81
51849;BME280;38952;51.090;-1.832;2023-06-14T08:30:06;100457.03;;;21.38;44.81
51849;BME280;38952;51.090;-1.832;2023-06-14T08:32:33;100448.25;;;21.57;44.28
51849;BME280;38952;51.090;-1.832;2023-06-14T08:34:58;100422.91;;;21.50;43.96
51849;BME280;38952;51.090;-1.832;2023-06-14T08:37:24;100433.94;;;21.67;43.58
51849;BME280;38952;51.090;-1.832;2023-06-14T08:39:50;100449.56;;;21.93;43.61
51849;BME280;38952;51.090;-1.832;2023-06-14T08:42:18;100442.63;;;21.99;42.57
51849;BME280;38952;51.090;-1.832;2023-06-14T08:44:44;100440.31;;;22.13;42.43
51849;BME280;38952;51.090;-1.832;2023-06-14T08:47:12;100435.25;;;22.28;41.92
51849;BME280;38952;51.090;-1.832;2023-06-14T08:49:40;100450.19;;;22.44;41.67
51849;BME280;38952;51.090;-1.832;2023-06-14T08:52:14;100465.06;;;22.61;41.28
51849;BME280;38952;51.090;-1.832;2023-06-14T08:54:44;100463.91;;;22.74;40.63
51849;BME280;38952;51.090;-1.832;2023-06-14T08:57:11;100462.06;;;22.78;40.11
51849;BME280;38952;51.090;-1.832;2023-06-14T08:59:46;100451.94;;;22.86;39.87
51849;BME280;38952;51.090;-1.832;2023-06-14T09:02:12;100456.22;;;23.08;40.17
51849;BME280;38952;51.090;-1.832;2023-06-14T09:04:38;100469.94;;;23.26;39.54
51849;BME280;38952;51.090;-1.832;2023-06-14T09:07:05;100448.34;;;23.23;39.00
51849;BME280;38952;51.090;-1.832;2023-06-14T09:09:31;100467.34;;;23.45;39.00
51849;BME280;38952;51.090;-1.832;2023-06-14T09:11:57;100448.97;;;23.44;38.52
51849;BME280;38952;51.090;-1.832;2023-06-14T09:14:24;100442.91;;;23.55;37.63
51849;BME280;38952;51.090;-1.832;2023-06-14T09:16:54;100461.19;;;23.80;37.93
51849;BME280;38952;51.090;-1.832;2023-06-14T09:19:23;100444.69;;;23.87;37.99
51849;BME280;38952;51.090;-1.832;2023-06-14T09:21:49;100469.88;;;24.19;38.39
51849;BME280;38952;51.090;-1.832;2023-06-14T09:24:18;100456.38;;;24.21;37.25
51849;BME280;38952;51.090;-1.832;2023-06-14T09:26:44;100467.09;;;24.51;37.87
51849;BME280;38952;51.090;-1.832;2023-06-14T09:29:11;100456.56;;;24.45;37.00
51849;BME280;38952;51.090;-1.832;2023-06-14T09:31:37;100461.00;;;24.62;36.69
51849;BME280;38952;51.090;-1.832;2023-06-14T09:34:05;100440.53;;;24.73;37.31
51849;BME280;38952;51.090;-1.832;2023-06-14T09:36:33;100439.34;;;24.90;37.17
51849;BME280;38952;51.090;-1.832;2023-06-14T09:39:03;100440.47;;;25.05;36.98
51849;BME280;38952;51.090;-1.832;2023-06-14T09:44:09;100455.09;;;25.31;35.40
51849;BME280;38952;51.090;-1.832;2023-06-14T09:46:37;100446.38;;;25.36;35.49
51849;BME280;38952;51.090;-1.832;2023-06-14T09:49:05;100451.13;;;25.51;35.66
51849;BME280;38952;51.090;-1.832;2023-06-14T09:51:31;100446.53;;;25.63;35.07
51849;BME280;38952;51.090;-1.832;2023-06-14T09:54:03;100460.09;;;25.80;35.25
51849;BME280;38952;51.090;-1.832;2023-06-14T09:56:40;100445.56;;;25.94;35.14
51849;BME280;38952;51.090;-1.832;2023-06-14T09:59:09;100455.78;;;26.02;34.79
51849;BME280;38952;51.090;-1.832;2023-06-14T10:01:35;100455.78;;;26.25;34.59
51849;BME280;38952;51.090;-1.832;2023-06-14T10:04:09;100443.28;;;26.42;34.21
51849;BME280;38952;51.090;-1.832;2023-06-14T10:06:41;100460.53;;;26.91;33.86
51849;BME280;38952;51.090;-1.832;2023-06-14T10:09:11;100444.56;;;27.86;32.70
51849;BME280;38952;51.090;-1.832;2023-06-14T10:11:38;100461.94;;;30.32;29.41
51849;BME280;38952;51.090;-1.832;2023-06-14T10:14:09;100469.06;;;33.35;25.60
51849;BME280;38952;51.090;-1.832;2023-06-14T10:16:56;100477.84;;;36.65;22.52
51849;BME280;38952;51.090;-1.832;2023-06-14T10:19:30;100468.41;;;39.58;19.55
51849;BME280;38952;51.090;-1.832;2023-06-14T10:22:08;100466.47;;;41.89;17.27
51849;BME280;38952;51.090;-1.832;2023-06-14T10:24:43;100463.47;;;43.82;15.47
51849;BME280;38952;51.090;-1.832;2023-06-14T10:27:09;100448.41;;;45.20;14.61
51849;BME280;38952;51.090;-1.832;2023-06-14T10:32:23;100448.81;;;46.84;12.96
51849;BME280;38952;51.090;-1.832;2023-06-14T10:35:07;100458.19;;;47.56;12.19
51849;BME280;38952;51.090;-1.832;2023-06-14T10:37:36;100453.38;;;48.44;12.19
51849;BME280;38952;51.090;-1.832;2023-06-14T10:40:02;100440.63;;;49.64;12.23
51849;BME280;38952;51.090;-1.832;2023-06-14T10:42:33;100447.44;;;51.09;11.63
51849;BME280;38952;51.090;-1.832;2023-06-14T10:45:00;100438.03;;;51.68;10.32
51849;BME280;38952;51.090;-1.832;2023-06-14T10:47:29;100456.81;;;51.54;10.29
51849;BME280;38952;51.090;-1.832;2023-06-14T10:50:07;100447.19;;;52.05;9.87
51849;BME280;38952;51.090;-1.832;2023-06-14T10:52:37;100444.63;;;52.41;9.16
51849;BME280;38952;51.090;-1.832;2023-06-14T10:57:39;100442.13;;;53.20;9.01
51849;BME280;38952;51.090;-1.832;2023-06-14T11:00:06;100432.03;;;53.63;8.54
51849;BME280;38952;51.090;-1.832;2023-06-14T11:05:24;100438.72;;;55.10;7.98
51849;BME280;38952;51.090;-1.832;2023-06-14T11:11:14;100413.41;;;55.36;7.95
51849;BME280;38952;51.090;-1.832;2023-06-14T11:13:46;100409.69;;;55.43;7.68
51849;BME280;38952;51.090;-1.832;2023-06-14T11:16:13;100415.94;;;55.47;7.56
51849;BME280;38952;51.090;-1.832;2023-06-14T11:19:06;100408.66;;;55.17;7.75
51849;BME280;38952;51.090;-1.832;2023-06-14T11:21:51;100396.38;;;55.26;7.58
51849;BME280;38952;51.090;-1.832;2023-06-14T11:24:57;100390.69;;;56.06;7.67
51849;BME280;38952;51.090;-1.832;2023-06-14T11:30:56;100390.84;;;57.73;6.66
51849;BME280;38952;51.090;-1.832;2023-06-14T11:33:48;100382.25;;;58.10;6.38
51849;BME280;38952;51.090;-1.832;2023-06-14T11:36:52;100396.16;;;58.27;6.52
51849;BME280;38952;51.090;-1.832;2023-06-14T11:39:23;100388.47;;;58.14;6.39
51849;BME280;38952;51.090;-1.832;2023-06-14T11:42:07;100397.03;;;58.82;6.62
51849;BME280;38952;51.090;-1.832;2023-06-14T11:44:32;100393.16;;;59.07;6.24
51849;BME280;38952;51.090;-1.832;2023-06-14T11:47:15;100402.34;;;59.20;5.91
51849;BME280;38952;51.090;-1.832;2023-06-14T11:49:43;100391.81;;;58.90;5.98
51849;BME280;38952;51.090;-1.832;2023-06-14T11:52:17;100402.66;;;58.87;5.79
51849;BME280;38952;51.090;-1.832;2023-06-14T11:55:19;100397.47;;;58.51;5.91
51849;BME280;38952;51.090;-1.832;2023-06-14T11:57:49;100395.47;;;58.53;5.90
51849;BME280;38952;51.090;-1.832;2023-06-14T12:00:48;100363.56;;;58.87;5.78
51849;BME280;38952;51.090;-1.832;2023-06-14T12:03:49;100389.59;;;58.81;5.54
51849;BME280;38952;51.090;-1.832;2023-06-14T12:06:46;100367.44;;;57.65;6.05
51849;BME280;38952;51.090;-1.832;2023-06-14T12:12:22;100376.25;;;58.35;5.85
51849;BME280;38952;51.090;-1.832;2023-06-14T12:15:08;100398.63;;;58.65;5.76
51849;BME280;38952;51.090;-1.832;2023-06-14T12:17:35;100384.09;;;59.04;5.80
51849;BME280;38952;51.090;-1.832;2023-06-14T12:20:13;100373.81;;;60.19;5.57
51849;BME280;38952;51.090;-1.832;2023-06-14T12:22:56;100379.03;;;60.69;5.16
51849;BME280;38952;51.090;-1.832;2023-06-14T12:25:31;100381.81;;;61.18;4.83
51849;BME280;38952;51.090;-1.832;2023-06-14T12:28:09;100372.69;;;61.04;4.95
51849;BME280;38952;51.090;-1.832;2023-06-14T12:30:52;100363.84;;;60.44;4.99
51849;BME280;38952;51.090;-1.832;2023-06-14T12:33:20;100380.34;;;60.27;4.90
51849;BME280;38952;51.090;-1.832;2023-06-14T12:36:13;100376.22;;;60.71;4.83
51849;BME280;38952;51.090;-1.832;2023-06-14T12:38:58;100377.81;;;61.35;4.79
51849;BME280;38952;51.090;-1.832;2023-06-14T12:41:37;100361.34;;;61.32;4.65
51849;BME280;38952;51.090;-1.832;2023-06-14T12:44:13;100357.38;;;61.49;4.61
51849;BME280;38952;51.090;-1.832;2023-06-14T12:46:48;100368.13;;;61.88;4.51
51849;BME280;38952;51.090;-1.832;2023-06-14T12:56:13;100360.25;;;62.47;4.58
51849;BME280;38952;51.090;-1.832;2023-06-14T12:58:38;100375.28;;;63.21;4.22
51849;BME280;38952;51.090;-1.832;2023-06-14T13:01:04;100364.56;;;63.39;4.18
51849;BME280;38952;51.090;-1.832;2023-06-14T13:03:38;100379.16;;;63.84;3.92
51849;BME280;38952;51.090;-1.832;2023-06-14T13:06:04;100361.72;;;63.91;3.84
51849;BME280;38952;51.090;-1.832;2023-06-14T13:08:29;100356.00;;;63.69;4.02
51849;BME280;38952;51.090;-1.832;2023-06-14T13:10:55;100358.47;;;63.61;3.88
51849;BME280;38952;51.090;-1.832;2023-06-14T13:13:21;100359.38;;;63.63;3.84
51849;BME280;38952;51.090;-1.832;2023-06-14T13:15:46;100359.56;;;63.79;4.00
51849;BME280;38952;51.090;-1.832;2023-06-14T13:18:15;100355.97;;;63.81;3.56
51849;BME280;38952;51.090;-1.832;2023-06-14T13:20:41;100355.72;;;63.77;4.00